createdAt,value
2022-08-07T00:09:38.777Z,2.70
2022-08-07T00:19:59.757Z,3.10
2022-08-07T00:29:43.511Z,3.00
2022-08-07T00:39:44.810Z,2.80
2022-08-07T00:50:17.388Z,3.10
2022-08-07T00:59:42.367Z,2.70
2022-08-07T01:10:02.425Z,2.80
2022-08-07T01:19:42.066Z,2.80
2022-08-07T01:29:41.370Z,2.70
2022-08-07T01:39:46.649Z,2.80
2022-08-07T01:49:46.212Z,2.70
2022-08-07T01:59:45.970Z,3.00
2022-08-07T02:09:52.491Z,2.80
2022-08-07T02:20:03.707Z,2.80
2022-08-07T02:29:48.917Z,3.00
2022-08-07T02:40:02.704Z,3.00
2022-08-07T02:49:56.739Z,3.10
2022-08-07T02:59:43.684Z,3.00
2022-08-07T03:09:44.779Z,2.70
2022-08-07T03:19:42.807Z,2.80
2022-08-07T03:29:49.460Z,2.60
2022-08-07T03:40:00.268Z,2.60
2022-08-07T03:49:47.880Z,2.70
2022-08-07T04:00:01.463Z,2.60
2022-08-07T04:09:50.357Z,2.70
2022-08-07T04:19:51.446Z,2.70
2022-08-07T04:29:57.242Z,2.70
2022-08-07T04:39:45.655Z,2.50
2022-08-07T04:49:47.308Z,2.60
2022-08-07T05:00:09.067Z,2.70
2022-08-07T05:09:46.404Z,2.90
2022-08-07T05:19:44.358Z,2.70
2022-08-07T05:29:48.192Z,2.70
2022-08-07T05:40:07.245Z,2.90
2022-08-07T05:49:43.856Z,2.80
2022-08-07T05:59:55.660Z,2.80
2022-08-07T06:10:04.952Z,2.80
2022-08-07T06:19:58.145Z,2.90
2022-08-07T06:29:47.842Z,2.80
2022-08-07T06:40:14.019Z,2.90
2022-08-07T06:49:50.732Z,3.00
2022-08-07T07:00:11.235Z,2.80
2022-08-07T07:09:46.463Z,2.50
2022-08-07T07:19:56.725Z,2.60
2022-08-07T07:29:57.483Z,2.60
2022-08-07T07:39:52.620Z,3.00
2022-08-07T07:50:32.332Z,3.20
2022-08-07T07:59:51.914Z,2.80
2022-08-07T08:09:51.915Z,3.10
2022-08-07T08:20:18.962Z,3.00
2022-08-07T08:29:55.990Z,3.30
2022-08-07T08:39:54.798Z,3.20
2022-08-07T08:50:02.895Z,3.20
2022-08-07T08:59:53.342Z,3.40
2022-08-07T09:09:56.504Z,3.30
2022-08-07T09:19:58.214Z,3.30
2022-08-07T09:30:02.473Z,3.10
2022-08-07T09:39:57.673Z,3.00
2022-08-07T09:50:00.242Z,3.10
2022-08-07T10:00:01.109Z,3.30
2022-08-07T10:10:02.784Z,3.10
2022-08-07T10:20:01.596Z,3.40
2022-08-07T10:30:01.240Z,3.60
2022-08-07T10:40:03.641Z,3.60
2022-08-07T10:50:06.187Z,3.70
2022-08-07T11:00:05.608Z,3.30
2022-08-07T11:10:08.040Z,3.40
2022-08-07T11:20:05.071Z,3.80
2022-08-07T11:30:18.127Z,3.50
2022-08-07T11:40:09.700Z,3.30
2022-08-07T11:50:25.661Z,3.40
2022-08-07T12:00:18.578Z,3.30
2022-08-07T12:10:14.045Z,3.60
2022-08-07T12:20:21.203Z,3.80
2022-08-07T12:30:13.354Z,3.80
2022-08-07T12:40:36.585Z,3.90
2022-08-07T12:50:33.608Z,3.90
2022-08-07T13:00:21.078Z,3.70
2022-08-07T13:10:39.058Z,3.60
2022-08-07T13:20:27.613Z,3.70
2022-08-07T13:30:40.796Z,3.70
2022-08-07T13:40:34.429Z,3.60
2022-08-07T13:50:32.350Z,3.90
2022-08-07T14:00:27.321Z,3.80
2022-08-07T14:10:31.789Z,3.80
2022-08-07T14:20:39.503Z,3.70
2022-08-07T14:30:32.941Z,4.00
2022-08-07T14:40:36.175Z,3.90
2022-08-07T14:50:37.642Z,4.00
2022-08-07T15:00:35.486Z,3.90
2022-08-07T15:10:40.738Z,3.90
2022-08-07T15:20:54.858Z,3.90
2022-08-07T15:30:59.342Z,3.50
2022-08-07T15:51:01.294Z,3.90
2022-08-07T16:00:49.734Z,3.70
2022-08-07T16:10:49.560Z,3.90
2022-08-07T16:20:55.341Z,3.80
2022-08-07T16:30:54.939Z,3.80
2022-08-07T16:40:57.444Z,4.10
2022-08-07T16:51:13.702Z,4.40
2022-08-07T17:00:59.221Z,3.70
2022-08-07T17:10:58.895Z,4.00
2022-08-07T17:21:03.698Z,3.70
2022-08-07T17:31:15.898Z,3.90
2022-08-07T17:41:12.528Z,3.90
2022-08-07T17:51:08.162Z,4.00
2022-08-07T18:01:18.153Z,4.10
2022-08-07T18:11:17.359Z,3.60
2022-08-07T18:21:30.000Z,3.90
2022-08-07T18:31:11.968Z,3.80
2022-08-07T18:41:20.859Z,3.90
2022-08-07T18:51:16.699Z,3.70
2022-08-07T19:01:21.714Z,3.70
2022-08-07T19:11:35.396Z,4.10
2022-08-07T19:21:42.889Z,3.60
2022-08-07T19:31:29.710Z,3.60
2022-08-07T19:41:20.416Z,3.90
2022-08-07T19:51:51.448Z,3.50
2022-08-07T20:01:25.025Z,3.60
2022-08-07T20:12:01.252Z,4.10
2022-08-07T20:21:41.469Z,3.60
2022-08-07T20:31:29.356Z,3.70
2022-08-07T20:41:28.958Z,3.90
2022-08-07T20:51:28.873Z,4.20
2022-08-07T21:01:36.652Z,3.60
2022-08-07T21:11:40.437Z,3.90
2022-08-07T21:21:33.134Z,3.30
2022-08-07T21:31:49.423Z,3.70
2022-08-07T21:41:52.048Z,3.80
2022-08-07T21:51:50.902Z,3.50
2022-08-07T22:02:04.424Z,3.60
2022-08-07T22:11:53.276Z,4.20
2022-08-07T22:22:02.965Z,3.90
2022-08-07T22:31:45.964Z,4.00
2022-08-07T22:42:02.922Z,3.60
2022-08-07T22:51:40.636Z,3.50
2022-08-07T23:01:49.583Z,3.40
2022-08-07T23:11:41.482Z,4.00
2022-08-07T23:21:45.453Z,4.00
2022-08-07T23:32:49.890Z,3.90
2022-08-07T23:41:47.887Z,3.90
2022-08-07T23:52:59.113Z,4.00
